Hardwick, Minnesota
Current Conditions -  °F | °C
As of 7:14 PM on Sunday 23 Nov 2014 (Local Time) from KLYV Reporting Station
Overcast Overcast  
Wind Chill: 22°   Ceiling: 3200
Heat Index: 34°   Visibility: 10mi
Dew Point: 27°   Wind: 20mph
Humidity: 75%   Direction: 330°NNW
Pressure: 29.53"   Gusts: 30mph
Location:  43.77°N, 96.2°W
Report Text: KLYV 240114Z AUTO 33017G26KT 10SM SCT025 OVC032 01/M03 A2953 RMK AO2
Loading
Personal Weather Stations






























Interactive Weather Map New forecast layout! Learn more

10-Day Weather Forecast

Advertisements
Track Severe Weather on mobile